sensor_id;sensor_type;location;lat;lon;timestamp;P1;durP1;ratioP1;P2;durP2;ratioP2
35847;SDS011;22332;51.954;20.118;2023-08-06T00:00:58;3.00;;;1.80;;
35847;SDS011;22332;51.954;20.118;2023-08-06T00:04:23;6.90;;;2.50;;
35847;SDS011;22332;51.954;20.118;2023-08-06T00:07:29;1.80;;;1.50;;
35847;SDS011;22332;51.954;20.118;2023-08-06T00:10:34;1.60;;;1.30;;
35847;SDS011;22332;51.954;20.118;2023-08-06T00:13:40;1.90;;;1.70;;
35847;SDS011;22332;51.954;20.118;2023-08-06T00:16:45;2.10;;;1.60;;
35847;SDS011;22332;51.954;20.118;2023-08-06T00:19:51;2.00;;;1.60;;
35847;SDS011;22332;51.954;20.118;2023-08-06T00:22:56;1.50;;;1.40;;
35847;SDS011;22332;51.954;20.118;2023-08-06T00:26:02;1.60;;;1.30;;
35847;SDS011;22332;51.954;20.118;2023-08-06T00:29:07;1.50;;;1.30;;
35847;SDS011;22332;51.954;20.118;2023-08-06T00:32:13;1.70;;;1.60;;
35847;SDS011;22332;51.954;20.118;2023-08-06T00:35:19;2.20;;;2.00;;
35847;SDS011;22332;51.954;20.118;2023-08-06T00:38:24;2.00;;;1.80;;
35847;SDS011;22332;51.954;20.118;2023-08-06T00:41:30;2.30;;;2.00;;
35847;SDS011;22332;51.954;20.118;2023-08-06T00:44:35;2.70;;;2.20;;
35847;SDS011;22332;51.954;20.118;2023-08-06T00:47:42;2.40;;;2.10;;
35847;SDS011;22332;51.954;20.118;2023-08-06T00:50:48;3.20;;;1.80;;
35847;SDS011;22332;51.954;20.118;2023-08-06T00:53:54;3.10;;;2.40;;
35847;SDS011;22332;51.954;20.118;2023-08-06T00:57:00;2.70;;;2.50;;
35847;SDS011;22332;51.954;20.118;2023-08-06T01:00:08;3.00;;;2.60;;
35847;SDS011;22332;51.954;20.118;2023-08-06T01:03:15;3.00;;;2.70;;
35847;SDS011;22332;51.954;20.118;2023-08-06T01:06:23;3.90;;;2.60;;
35847;SDS011;22332;51.954;20.118;2023-08-06T01:09:43;3.40;;;2.20;;
35847;SDS011;22332;51.954;20.118;2023-08-06T01:12:59;2.80;;;2.60;;
35847;SDS011;22332;51.954;20.118;2023-08-06T01:16:12;3.00;;;2.70;;
35847;SDS011;22332;51.954;20.118;2023-08-06T01:19:21;4.00;;;3.20;;
35847;SDS011;22332;51.954;20.118;2023-08-06T01:22:26;3.40;;;3.00;;
35847;SDS011;22332;51.954;20.118;2023-08-06T01:25:33;3.20;;;2.90;;
35847;SDS011;22332;51.954;20.118;2023-08-06T01:28:47;4.50;;;3.80;;
35847;SDS011;22332;51.954;20.118;2023-08-06T01:31:59;4.40;;;3.40;;
35847;SDS011;22332;51.954;20.118;2023-08-06T01:35:06;3.50;;;3.10;;
35847;SDS011;22332;51.954;20.118;2023-08-06T01:38:14;5.40;;;3.60;;
35847;SDS011;22332;51.954;20.118;2023-08-06T01:41:19;4.70;;;4.20;;
35847;SDS011;22332;51.954;20.118;2023-08-06T01:44:25;3.80;;;3.40;;
35847;SDS011;22332;51.954;20.118;2023-08-06T01:47:31;3.70;;;3.30;;
35847;SDS011;22332;51.954;20.118;2023-08-06T01:50:36;4.00;;;3.60;;
35847;SDS011;22332;51.954;20.118;2023-08-06T01:53:42;4.50;;;4.10;;
35847;SDS011;22332;51.954;20.118;2023-08-06T01:56:48;5.90;;;4.60;;
35847;SDS011;22332;51.954;20.118;2023-08-06T01:59:53;3.90;;;3.40;;
35847;SDS011;22332;51.954;20.118;2023-08-06T02:03:00;3.90;;;3.50;;
35847;SDS011;22332;51.954;20.118;2023-08-06T02:06:06;3.70;;;3.40;;
35847;SDS011;22332;51.954;20.118;2023-08-06T02:09:11;4.40;;;4.00;;
35847;SDS011;22332;51.954;20.118;2023-08-06T02:12:17;4.70;;;4.00;;
35847;SDS011;22332;51.954;20.118;2023-08-06T02:15:22;4.20;;;3.90;;
35847;SDS011;22332;51.954;20.118;2023-08-06T02:18:28;6.20;;;4.90;;
35847;SDS011;22332;51.954;20.118;2023-08-06T02:21:33;6.20;;;5.50;;
35847;SDS011;22332;51.954;20.118;2023-08-06T02:24:39;5.50;;;4.90;;
35847;SDS011;22332;51.954;20.118;2023-08-06T02:27:47;5.60;;;5.10;;
35847;SDS011;22332;51.954;20.118;2023-08-06T02:30:52;4.80;;;4.00;;
35847;SDS011;22332;51.954;20.118;2023-08-06T02:33:58;5.70;;;5.10;;
35847;SDS011;22332;51.954;20.118;2023-08-06T02:37:03;6.20;;;5.20;;
35847;SDS011;22332;51.954;20.118;2023-08-06T02:40:10;7.00;;;6.30;;
35847;SDS011;22332;51.954;20.118;2023-08-06T02:43:16;8.70;;;5.70;;
35847;SDS011;22332;51.954;20.118;2023-08-06T02:46:21;7.60;;;6.60;;
35847;SDS011;22332;51.954;20.118;2023-08-06T02:49:28;7.30;;;6.50;;
35847;SDS011;22332;51.954;20.118;2023-08-06T02:52:33;7.80;;;6.90;;
35847;SDS011;22332;51.954;20.118;2023-08-06T02:55:45;9.90;;;7.30;;
35847;SDS011;22332;51.954;20.118;2023-08-06T02:58:53;9.10;;;7.50;;
35847;SDS011;22332;51.954;20.118;2023-08-06T03:02:15;9.30;;;7.30;;
35847;SDS011;22332;51.954;20.118;2023-08-06T03:05:35;8.00;;;6.90;;
35847;SDS011;22332;51.954;20.118;2023-08-06T03:08:41;8.40;;;7.50;;
35847;SDS011;22332;51.954;20.118;2023-08-06T03:11:48;8.40;;;7.50;;
35847;SDS011;22332;51.954;20.118;2023-08-06T03:14:54;9.10;;;7.20;;
35847;SDS011;22332;51.954;20.118;2023-08-06T03:17:59;9.50;;;8.00;;
35847;SDS011;22332;51.954;20.118;2023-08-06T03:21:05;10.50;;;8.40;;
35847;SDS011;22332;51.954;20.118;2023-08-06T03:24:11;8.90;;;7.90;;
35847;SDS011;22332;51.954;20.118;2023-08-06T03:27:19;9.30;;;8.40;;
35847;SDS011;22332;51.954;20.118;2023-08-06T03:30:25;9.80;;;8.80;;
35847;SDS011;22332;51.954;20.118;2023-08-06T03:33:31;10.10;;;9.10;;
35847;SDS011;22332;51.954;20.118;2023-08-06T03:36:37;12.20;;;10.20;;
35847;SDS011;22332;51.954;20.118;2023-08-06T03:39:43;11.40;;;9.90;;
35847;SDS011;22332;51.954;20.118;2023-08-06T03:42:48;12.60;;;9.40;;
35847;SDS011;22332;51.954;20.118;2023-08-06T03:45:54;11.80;;;10.20;;
35847;SDS011;22332;51.954;20.118;2023-08-06T03:49:00;10.80;;;9.70;;
35847;SDS011;22332;51.954;20.118;2023-08-06T03:52:06;10.10;;;9.10;;
35847;SDS011;22332;51.954;20.118;2023-08-06T03:55:12;10.20;;;9.00;;
35847;SDS011;22332;51.954;20.118;2023-08-06T03:58:18;10.70;;;8.70;;
35847;SDS011;22332;51.954;20.118;2023-08-06T04:01:24;10.90;;;9.70;;
35847;SDS011;22332;51.954;20.118;2023-08-06T04:04:30;10.00;;;9.00;;
35847;SDS011;22332;51.954;20.118;2023-08-06T04:07:35;12.20;;;9.10;;
35847;SDS011;22332;51.954;20.118;2023-08-06T04:10:41;11.40;;;9.70;;
35847;SDS011;22332;51.954;20.118;2023-08-06T04:13:46;11.00;;;9.80;;
35847;SDS011;22332;51.954;20.118;2023-08-06T04:16:52;10.90;;;9.40;;
35847;SDS011;22332;51.954;20.118;2023-08-06T04:19:57;10.60;;;9.00;;
35847;SDS011;22332;51.954;20.118;2023-08-06T04:23:06;10.80;;;8.40;;
35847;SDS011;22332;51.954;20.118;2023-08-06T04:26:12;9.70;;;8.50;;
35847;SDS011;22332;51.954;20.118;2023-08-06T04:29:18;9.40;;;8.40;;
35847;SDS011;22332;51.954;20.118;2023-08-06T04:32:23;9.90;;;8.90;;
35847;SDS011;22332;51.954;20.118;2023-08-06T04:35:29;10.50;;;8.50;;
35847;SDS011;22332;51.954;20.118;2023-08-06T04:38:35;9.70;;;8.40;;
35847;SDS011;22332;51.954;20.118;2023-08-06T04:41:41;10.10;;;9.00;;
35847;SDS011;22332;51.954;20.118;2023-08-06T04:44:47;10.00;;;8.20;;
35847;SDS011;22332;51.954;20.118;2023-08-06T04:47:53;11.00;;;8.70;;
35847;SDS011;22332;51.954;20.118;2023-08-06T04:50:58;8.70;;;7.70;;
35847;SDS011;22332;51.954;20.118;2023-08-06T04:54:04;10.70;;;8.70;;
35847;SDS011;22332;51.954;20.118;2023-08-06T04:57:09;10.80;;;8.10;;
35847;SDS011;22332;51.954;20.118;2023-08-06T05:00:15;9.80;;;8.50;;
35847;SDS011;22332;51.954;20.118;2023-08-06T05:03:20;9.80;;;7.90;;
35847;SDS011;22332;51.954;20.118;2023-08-06T05:06:26;11.50;;;9.10;;
35847;SDS011;22332;51.954;20.118;2023-08-06T05:09:31;11.50;;;8.90;;
35847;SDS011;22332;51.954;20.118;2023-08-06T05:12:37;9.60;;;8.40;;
35847;SDS011;22332;51.954;20.118;2023-08-06T05:15:42;10.30;;;9.20;;
35847;SDS011;22332;51.954;20.118;2023-08-06T05:18:49;10.50;;;9.30;;
35847;SDS011;22332;51.954;20.118;2023-08-06T05:21:54;10.30;;;8.80;;
35847;SDS011;22332;51.954;20.118;2023-08-06T05:25:00;13.40;;;8.70;;
35847;SDS011;22332;51.954;20.118;2023-08-06T05:28:06;12.60;;;9.60;;
35847;SDS011;22332;51.954;20.118;2023-08-06T05:31:11;10.70;;;9.40;;
35847;SDS011;22332;51.954;20.118;2023-08-06T05:34:17;10.10;;;8.70;;
35847;SDS011;22332;51.954;20.118;2023-08-06T05:37:22;11.10;;;9.10;;
35847;SDS011;22332;51.954;20.118;2023-08-06T05:40:28;10.10;;;9.10;;
35847;SDS011;22332;51.954;20.118;2023-08-06T05:43:33;10.00;;;9.00;;
35847;SDS011;22332;51.954;20.118;2023-08-06T05:46:39;12.40;;;9.00;;
35847;SDS011;22332;51.954;20.118;2023-08-06T05:49:44;12.00;;;8.70;;
35847;SDS011;22332;51.954;20.118;2023-08-06T05:52:50;11.00;;;9.60;;
35847;SDS011;22332;51.954;20.118;2023-08-06T05:55:56;11.20;;;9.80;;
35847;SDS011;22332;51.954;20.118;2023-08-06T05:59:01;10.50;;;9.40;;
35847;SDS011;22332;51.954;20.118;2023-08-06T06:02:07;10.10;;;9.00;;
35847;SDS011;22332;51.954;20.118;2023-08-06T06:05:12;12.20;;;10.60;;
35847;SDS011;22332;51.954;20.118;2023-08-06T06:08:18;11.40;;;10.20;;
35847;SDS011;22332;51.954;20.118;2023-08-06T06:11:24;11.00;;;9.90;;
35847;SDS011;22332;51.954;20.118;2023-08-06T06:14:29;9.50;;;8.50;;
35847;SDS011;22332;51.954;20.118;2023-08-06T06:17:34;11.20;;;9.30;;
35847;SDS011;22332;51.954;20.118;2023-08-06T06:20:40;10.80;;;9.60;;
35847;SDS011;22332;51.954;20.118;2023-08-06T06:23:46;10.20;;;8.70;;
35847;SDS011;22332;51.954;20.118;2023-08-06T06:26:51;11.90;;;9.30;;
35847;SDS011;22332;51.954;20.118;2023-08-06T06:29:56;12.70;;;9.70;;
35847;SDS011;22332;51.954;20.118;2023-08-06T06:33:02;11.30;;;10.10;;
35847;SDS011;22332;51.954;20.118;2023-08-06T06:36:08;10.90;;;9.80;;
35847;SDS011;22332;51.954;20.118;2023-08-06T06:39:13;10.50;;;9.00;;
35847;SDS011;22332;51.954;20.118;2023-08-06T06:42:19;10.70;;;8.40;;
35847;SDS011;22332;51.954;20.118;2023-08-06T06:45:26;11.10;;;10.00;;
35847;SDS011;22332;51.954;20.118;2023-08-06T06:48:32;11.60;;;9.20;;
35847;SDS011;22332;51.954;20.118;2023-08-06T06:51:38;11.40;;;10.30;;
35847;SDS011;22332;51.954;20.118;2023-08-06T06:54:43;12.30;;;10.80;;
35847;SDS011;22332;51.954;20.118;2023-08-06T06:57:49;11.20;;;9.50;;
35847;SDS011;22332;51.954;20.118;2023-08-06T07:00:54;12.80;;;10.00;;
35847;SDS011;22332;51.954;20.118;2023-08-06T07:04:00;15.00;;;11.60;;
35847;SDS011;22332;51.954;20.118;2023-08-06T07:07:07;11.80;;;10.30;;
35847;SDS011;22332;51.954;20.118;2023-08-06T07:10:13;12.30;;;11.10;;
35847;SDS011;22332;51.954;20.118;2023-08-06T07:13:18;13.40;;;11.90;;
35847;SDS011;22332;51.954;20.118;2023-08-06T07:16:25;12.30;;;11.00;;
35847;SDS011;22332;51.954;20.118;2023-08-06T07:19:32;13.40;;;12.00;;
35847;SDS011;22332;51.954;20.118;2023-08-06T07:22:37;14.90;;;11.70;;
35847;SDS011;22332;51.954;20.118;2023-08-06T07:25:43;14.70;;;13.20;;
35847;SDS011;22332;51.954;20.118;2023-08-06T07:28:49;13.70;;;12.20;;
35847;SDS011;22332;51.954;20.118;2023-08-06T07:31:55;15.90;;;13.50;;
35847;SDS011;22332;51.954;20.118;2023-08-06T07:35:01;14.50;;;13.00;;
35847;SDS011;22332;51.954;20.118;2023-08-06T07:38:06;17.40;;;14.40;;
35847;SDS011;22332;51.954;20.118;2023-08-06T07:41:12;17.00;;;14.40;;
35847;SDS011;22332;51.954;20.118;2023-08-06T07:44:18;17.30;;;13.20;;
35847;SDS011;22332;51.954;20.118;2023-08-06T07:47:23;14.00;;;12.50;;
35847;SDS011;22332;51.954;20.118;2023-08-06T07:50:29;15.80;;;13.60;;
35847;SDS011;22332;51.954;20.118;2023-08-06T07:53:35;17.60;;;15.80;;
35847;SDS011;22332;51.954;20.118;2023-08-06T07:56:40;18.80;;;16.80;;
35847;SDS011;22332;51.954;20.118;2023-08-06T07:59:46;17.40;;;15.30;;
35847;SDS011;22332;51.954;20.118;2023-08-06T08:02:51;17.60;;;15.20;;
35847;SDS011;22332;51.954;20.118;2023-08-06T08:05:57;18.50;;;16.60;;
35847;SDS011;22332;51.954;20.118;2023-08-06T08:09:02;20.70;;;17.90;;
35847;SDS011;22332;51.954;20.118;2023-08-06T08:12:08;24.00;;;20.70;;
35847;SDS011;22332;51.954;20.118;2023-08-06T08:15:14;20.30;;;17.30;;
35847;SDS011;22332;51.954;20.118;2023-08-06T08:18:20;20.80;;;17.80;;
35847;SDS011;22332;51.954;20.118;2023-08-06T08:21:25;20.70;;;17.30;;
35847;SDS011;22332;51.954;20.118;2023-08-06T08:24:31;20.80;;;17.20;;
35847;SDS011;22332;51.954;20.118;2023-08-06T08:27:36;20.20;;;17.50;;
35847;SDS011;22332;51.954;20.118;2023-08-06T08:30:42;19.90;;;16.30;;
35847;SDS011;22332;51.954;20.118;2023-08-06T08:33:48;18.80;;;16.70;;
35847;SDS011;22332;51.954;20.118;2023-08-06T08:36:53;20.20;;;16.80;;
35847;SDS011;22332;51.954;20.118;2023-08-06T08:39:59;18.30;;;16.30;;
35847;SDS011;22332;51.954;20.118;2023-08-06T08:43:06;22.30;;;18.50;;
35847;SDS011;22332;51.954;20.118;2023-08-06T08:46:12;23.30;;;18.00;;
35847;SDS011;22332;51.954;20.118;2023-08-06T08:49:21;21.30;;;16.80;;
35847;SDS011;22332;51.954;20.118;2023-08-06T08:52:27;21.60;;;16.90;;
35847;SDS011;22332;51.954;20.118;2023-08-06T08:55:36;20.70;;;17.60;;
35847;SDS011;22332;51.954;20.118;2023-08-06T08:58:43;19.40;;;17.10;;
35847;SDS011;22332;51.954;20.118;2023-08-06T09:01:50;20.10;;;15.50;;
35847;SDS011;22332;51.954;20.118;2023-08-06T09:04:59;17.80;;;15.50;;
35847;SDS011;22332;51.954;20.118;2023-08-06T09:08:07;17.40;;;14.60;;
35847;SDS011;22332;51.954;20.118;2023-08-06T09:11:15;17.50;;;15.70;;
35847;SDS011;22332;51.954;20.118;2023-08-06T09:14:26;18.50;;;16.50;;
35847;SDS011;22332;51.954;20.118;2023-08-06T09:17:33;16.60;;;14.90;;
35847;SDS011;22332;51.954;20.118;2023-08-06T09:20:39;21.00;;;14.80;;
35847;SDS011;22332;51.954;20.118;2023-08-06T09:23:45;15.90;;;14.20;;
35847;SDS011;22332;51.954;20.118;2023-08-06T09:26:50;17.30;;;14.60;;
35847;SDS011;22332;51.954;20.118;2023-08-06T09:29:57;16.80;;;15.00;;
35847;SDS011;22332;51.954;20.118;2023-08-06T09:33:02;16.60;;;14.70;;
35847;SDS011;22332;51.954;20.118;2023-08-06T09:36:13;15.10;;;13.60;;
35847;SDS011;22332;51.954;20.118;2023-08-06T09:39:21;15.80;;;13.40;;
35847;SDS011;22332;51.954;20.118;2023-08-06T09:42:30;14.50;;;13.00;;
35847;SDS011;22332;51.954;20.118;2023-08-06T09:45:35;14.60;;;13.10;;
35847;SDS011;22332;51.954;20.118;2023-08-06T09:48:42;14.30;;;12.90;;
35847;SDS011;22332;51.954;20.118;2023-08-06T09:51:50;14.00;;;12.60;;
35847;SDS011;22332;51.954;20.118;2023-08-06T09:54:58;13.70;;;12.30;;
35847;SDS011;22332;51.954;20.118;2023-08-06T09:58:05;14.80;;;13.10;;
35847;SDS011;22332;51.954;20.118;2023-08-06T10:01:12;14.20;;;12.60;;
35847;SDS011;22332;51.954;20.118;2023-08-06T10:04:20;13.90;;;12.20;;
35847;SDS011;22332;51.954;20.118;2023-08-06T10:07:25;12.70;;;11.60;;
35847;SDS011;22332;51.954;20.118;2023-08-06T10:10:33;13.40;;;12.10;;
35847;SDS011;22332;51.954;20.118;2023-08-06T10:13:40;14.00;;;12.60;;
35847;SDS011;22332;51.954;20.118;2023-08-06T10:16:46;13.80;;;12.50;;
35847;SDS011;22332;51.954;20.118;2023-08-06T10:19:53;14.30;;;12.90;;
35847;SDS011;22332;51.954;20.118;2023-08-06T10:23:03;13.70;;;11.90;;
35847;SDS011;22332;51.954;20.118;2023-08-06T10:26:10;12.80;;;11.50;;
35847;SDS011;22332;51.954;20.118;2023-08-06T10:29:37;14.10;;;12.70;;
35847;SDS011;22332;51.954;20.118;2023-08-06T10:32:47;14.10;;;12.60;;
35847;SDS011;22332;51.954;20.118;2023-08-06T10:35:53;13.70;;;12.40;;
35847;SDS011;22332;51.954;20.118;2023-08-06T10:39:09;12.50;;;11.30;;
35847;SDS011;22332;51.954;20.118;2023-08-06T10:42:28;12.10;;;10.90;;
35847;SDS011;22332;51.954;20.118;2023-08-06T10:45:35;13.10;;;11.50;;
35847;SDS011;22332;51.954;20.118;2023-08-06T10:48:43;12.70;;;11.40;;
35847;SDS011;22332;51.954;20.118;2023-08-06T10:51:50;12.90;;;11.60;;
35847;SDS011;22332;51.954;20.118;2023-08-06T10:54:56;13.20;;;11.90;;
35847;SDS011;22332;51.954;20.118;2023-08-06T10:58:02;13.10;;;11.50;;
35847;SDS011;22332;51.954;20.118;2023-08-06T11:01:07;11.70;;;10.50;;
35847;SDS011;22332;51.954;20.118;2023-08-06T11:04:14;14.70;;;10.70;;
35847;SDS011;22332;51.954;20.118;2023-08-06T11:07:20;11.40;;;9.80;;
35847;SDS011;22332;51.954;20.118;2023-08-06T11:10:26;11.80;;;9.70;;
35847;SDS011;22332;51.954;20.118;2023-08-06T11:13:32;12.10;;;10.90;;
35847;SDS011;22332;51.954;20.118;2023-08-06T11:16:38;12.20;;;11.00;;
35847;SDS011;22332;51.954;20.118;2023-08-06T11:19:48;12.60;;;11.40;;
35847;SDS011;22332;51.954;20.118;2023-08-06T11:22:54;13.10;;;10.90;;
35847;SDS011;22332;51.954;20.118;2023-08-06T11:26:00;11.20;;;10.10;;
35847;SDS011;22332;51.954;20.118;2023-08-06T11:29:06;10.90;;;9.90;;
35847;SDS011;22332;51.954;20.118;2023-08-06T11:32:11;10.60;;;9.60;;
35847;SDS011;22332;51.954;20.118;2023-08-06T11:35:17;11.00;;;9.90;;
35847;SDS011;22332;51.954;20.118;2023-08-06T11:38:24;10.20;;;9.00;;
35847;SDS011;22332;51.954;20.118;2023-08-06T11:41:31;9.50;;;8.50;;
35847;SDS011;22332;51.954;20.118;2023-08-06T11:44:37;10.10;;;9.20;;
35847;SDS011;22332;51.954;20.118;2023-08-06T11:47:50;10.20;;;9.20;;
35847;SDS011;22332;51.954;20.118;2023-08-06T11:50:56;9.40;;;8.20;;
35847;SDS011;22332;51.954;20.118;2023-08-06T11:54:03;8.90;;;8.00;;
35847;SDS011;22332;51.954;20.118;2023-08-06T11:57:10;9.30;;;8.50;;
35847;SDS011;22332;51.954;20.118;2023-08-06T12:00:16;9.20;;;8.20;;
35847;SDS011;22332;51.954;20.118;2023-08-06T12:03:24;9.10;;;8.30;;
35847;SDS011;22332;51.954;20.118;2023-08-06T12:06:41;9.00;;;7.90;;
35847;SDS011;22332;51.954;20.118;2023-08-06T12:09:47;8.00;;;7.20;;
35847;SDS011;22332;51.954;20.118;2023-08-06T12:12:52;8.70;;;7.80;;
35847;SDS011;22332;51.954;20.118;2023-08-06T12:15:58;8.50;;;7.70;;
35847;SDS011;22332;51.954;20.118;2023-08-06T12:19:04;9.20;;;7.80;;
35847;SDS011;22332;51.954;20.118;2023-08-06T12:22:09;8.50;;;7.70;;
35847;SDS011;22332;51.954;20.118;2023-08-06T12:25:16;8.10;;;7.40;;
35847;SDS011;22332;51.954;20.118;2023-08-06T12:28:21;8.30;;;7.60;;
35847;SDS011;22332;51.954;20.118;2023-08-06T12:31:27;8.10;;;7.40;;
35847;SDS011;22332;51.954;20.118;2023-08-06T12:34:32;8.40;;;7.60;;
35847;SDS011;22332;51.954;20.118;2023-08-06T12:37:38;7.90;;;6.80;;
35847;SDS011;22332;51.954;20.118;2023-08-06T12:40:43;7.40;;;6.70;;
35847;SDS011;22332;51.954;20.118;2023-08-06T12:43:49;7.50;;;6.80;;
35847;SDS011;22332;51.954;20.118;2023-08-06T12:46:54;5.80;;;3.70;;
35847;SDS011;22332;51.954;20.118;2023-08-06T12:50:00;3.10;;;2.80;;
35847;SDS011;22332;51.954;20.118;2023-08-06T12:53:06;2.60;;;2.10;;
35847;SDS011;22332;51.954;20.118;2023-08-06T12:56:12;2.00;;;1.80;;
35847;SDS011;22332;51.954;20.118;2023-08-06T12:59:18;1.70;;;1.60;;
35847;SDS011;22332;51.954;20.118;2023-08-06T13:02:24;1.80;;;1.20;;
35847;SDS011;22332;51.954;20.118;2023-08-06T13:05:32;1.40;;;1.30;;
35847;SDS011;22332;51.954;20.118;2023-08-06T13:08:39;2.80;;;1.10;;
35847;SDS011;22332;51.954;20.118;2023-08-06T13:11:44;1.20;;;1.10;;
35847;SDS011;22332;51.954;20.118;2023-08-06T13:14:52;2.20;;;1.10;;
35847;SDS011;22332;51.954;20.118;2023-08-06T13:18:00;1.70;;;1.40;;
35847;SDS011;22332;51.954;20.118;2023-08-06T13:21:07;1.90;;;1.40;;
35847;SDS011;22332;51.954;20.118;2023-08-06T13:25:04;3.70;;;1.20;;
35847;SDS011;22332;51.954;20.118;2023-08-06T13:28:10;1.20;;;1.10;;
35847;SDS011;22332;51.954;20.118;2023-08-06T13:31:16;1.40;;;1.30;;
35847;SDS011;22332;51.954;20.118;2023-08-06T13:34:25;1.60;;;1.20;;
35847;SDS011;22332;51.954;20.118;2023-08-06T13:37:33;2.10;;;1.30;;
35847;SDS011;22332;51.954;20.118;2023-08-06T13:40:46;2.40;;;0.90;;
35847;SDS011;22332;51.954;20.118;2023-08-06T13:44:01;1.10;;;0.80;;
35847;SDS011;22332;51.954;20.118;2023-08-06T13:47:06;1.10;;;0.80;;
35847;SDS011;22332;51.954;20.118;2023-08-06T13:50:15;1.00;;;0.90;;
35847;SDS011;22332;51.954;20.118;2023-08-06T13:53:21;0.70;;;0.60;;
35847;SDS011;22332;51.954;20.118;2023-08-06T13:56:28;0.70;;;0.70;;
35847;SDS011;22332;51.954;20.118;2023-08-06T13:59:33;0.60;;;0.50;;
35847;SDS011;22332;51.954;20.118;2023-08-06T14:02:39;0.90;;;0.50;;
35847;SDS011;22332;51.954;20.118;2023-08-06T14:05:46;1.40;;;0.50;;
35847;SDS011;22332;51.954;20.118;2023-08-06T14:08:52;0.80;;;0.40;;
35847;SDS011;22332;51.954;20.118;2023-08-06T14:11:57;0.50;;;0.40;;
35847;SDS011;22332;51.954;20.118;2023-08-06T14:15:06;0.60;;;0.40;;
35847;SDS011;22332;51.954;20.118;2023-08-06T14:18:12;0.30;;;0.30;;
35847;SDS011;22332;51.954;20.118;2023-08-06T14:21:18;0.80;;;0.30;;
35847;SDS011;22332;51.954;20.118;2023-08-06T14:24:24;0.30;;;0.30;;
35847;SDS011;22332;51.954;20.118;2023-08-06T14:27:29;0.60;;;0.30;;
35847;SDS011;22332;51.954;20.118;2023-08-06T14:30:36;0.50;;;0.30;;
35847;SDS011;22332;51.954;20.118;2023-08-06T14:33:41;2.00;;;0.60;;
35847;SDS011;22332;51.954;20.118;2023-08-06T14:36:47;0.70;;;0.30;;
35847;SDS011;22332;51.954;20.118;2023-08-06T14:39:52;0.30;;;0.30;;
35847;SDS011;22332;51.954;20.118;2023-08-06T14:42:58;0.60;;;0.30;;
35847;SDS011;22332;51.954;20.118;2023-08-06T14:46:04;0.50;;;0.30;;
35847;SDS011;22332;51.954;20.118;2023-08-06T14:49:09;1.60;;;0.60;;
35847;SDS011;22332;51.954;20.118;2023-08-06T14:52:15;0.90;;;0.50;;
35847;SDS011;22332;51.954;20.118;2023-08-06T14:55:27;0.80;;;0.30;;
35847;SDS011;22332;51.954;20.118;2023-08-06T14:58:32;0.40;;;0.40;;
35847;SDS011;22332;51.954;20.118;2023-08-06T15:01:38;0.80;;;0.40;;
35847;SDS011;22332;51.954;20.118;2023-08-06T15:04:43;0.70;;;0.40;;
35847;SDS011;22332;51.954;20.118;2023-08-06T15:07:50;0.50;;;0.40;;
35847;SDS011;22332;51.954;20.118;2023-08-06T15:10:56;0.30;;;0.30;;
35847;SDS011;22332;51.954;20.118;2023-08-06T15:14:04;0.30;;;0.30;;
35847;SDS011;22332;51.954;20.118;2023-08-06T15:17:10;0.40;;;0.40;;
35847;SDS011;22332;51.954;20.118;2023-08-06T15:20:15;0.70;;;0.40;;
35847;SDS011;22332;51.954;20.118;2023-08-06T15:23:21;1.10;;;0.60;;
35847;SDS011;22332;51.954;20.118;2023-08-06T15:26:26;1.00;;;0.70;;
35847;SDS011;22332;51.954;20.118;2023-08-06T15:29:32;3.50;;;0.80;;
35847;SDS011;22332;51.954;20.118;2023-08-06T15:32:38;1.70;;;0.60;;
35847;SDS011;22332;51.954;20.118;2023-08-06T15:35:48;0.60;;;0.60;;
35847;SDS011;22332;51.954;20.118;2023-08-06T15:38:54;2.20;;;0.80;;
35847;SDS011;22332;51.954;20.118;2023-08-06T15:42:00;2.50;;;1.30;;
35847;SDS011;22332;51.954;20.118;2023-08-06T15:45:07;1.90;;;1.10;;
35847;SDS011;22332;51.954;20.118;2023-08-06T15:48:15;1.20;;;0.80;;
35847;SDS011;22332;51.954;20.118;2023-08-06T15:51:20;1.30;;;1.00;;
35847;SDS011;22332;51.954;20.118;2023-08-06T15:54:26;1.20;;;0.80;;
35847;SDS011;22332;51.954;20.118;2023-08-06T15:57:31;1.20;;;0.80;;
35847;SDS011;22332;51.954;20.118;2023-08-06T16:00:37;1.00;;;0.90;;
35847;SDS011;22332;51.954;20.118;2023-08-06T16:03:43;1.90;;;1.00;;
35847;SDS011;22332;51.954;20.118;2023-08-06T16:06:48;1.00;;;0.90;;
35847;SDS011;22332;51.954;20.118;2023-08-06T16:09:54;2.30;;;0.90;;
35847;SDS011;22332;51.954;20.118;2023-08-06T16:13:00;2.00;;;1.00;;
35847;SDS011;22332;51.954;20.118;2023-08-06T16:16:05;1.50;;;0.80;;
35847;SDS011;22332;51.954;20.118;2023-08-06T16:19:11;1.90;;;0.90;;
35847;SDS011;22332;51.954;20.118;2023-08-06T16:22:18;2.30;;;0.90;;
35847;SDS011;22332;51.954;20.118;2023-08-06T16:25:25;1.00;;;0.80;;
35847;SDS011;22332;51.954;20.118;2023-08-06T16:28:31;1.20;;;1.10;;
35847;SDS011;22332;51.954;20.118;2023-08-06T16:31:36;1.80;;;1.30;;
35847;SDS011;22332;51.954;20.118;2023-08-06T16:34:42;1.40;;;1.30;;
35847;SDS011;22332;51.954;20.118;2023-08-06T16:37:47;1.60;;;1.10;;
35847;SDS011;22332;51.954;20.118;2023-08-06T16:40:53;1.40;;;1.00;;
35847;SDS011;22332;51.954;20.118;2023-08-06T16:43:59;1.80;;;0.80;;
35847;SDS011;22332;51.954;20.118;2023-08-06T16:47:08;1.00;;;0.90;;
35847;SDS011;22332;51.954;20.118;2023-08-06T16:50:13;3.30;;;0.80;;
35847;SDS011;22332;51.954;20.118;2023-08-06T16:53:19;0.90;;;0.90;;
35847;SDS011;22332;51.954;20.118;2023-08-06T16:56:27;1.80;;;1.00;;
35847;SDS011;22332;51.954;20.118;2023-08-06T16:59:33;1.20;;;1.10;;
35847;SDS011;22332;51.954;20.118;2023-08-06T17:02:38;1.30;;;1.20;;
35847;SDS011;22332;51.954;20.118;2023-08-06T17:05:44;2.00;;;0.90;;
35847;SDS011;22332;51.954;20.118;2023-08-06T17:08:50;1.90;;;0.90;;
35847;SDS011;22332;51.954;20.118;2023-08-06T17:11:56;1.00;;;0.90;;
35847;SDS011;22332;51.954;20.118;2023-08-06T17:15:01;0.90;;;0.90;;
35847;SDS011;22332;51.954;20.118;2023-08-06T17:18:07;0.90;;;0.90;;
35847;SDS011;22332;51.954;20.118;2023-08-06T17:21:14;1.00;;;0.70;;
35847;SDS011;22332;51.954;20.118;2023-08-06T17:24:19;1.10;;;0.70;;
35847;SDS011;22332;51.954;20.118;2023-08-06T17:27:25;0.80;;;0.60;;
35847;SDS011;22332;51.954;20.118;2023-08-06T17:30:30;0.60;;;0.50;;
35847;SDS011;22332;51.954;20.118;2023-08-06T17:33:36;0.40;;;0.40;;
35847;SDS011;22332;51.954;20.118;2023-08-06T17:36:42;0.40;;;0.40;;
35847;SDS011;22332;51.954;20.118;2023-08-06T17:39:47;0.40;;;0.40;;
35847;SDS011;22332;51.954;20.118;2023-08-06T17:42:53;2.10;;;0.60;;
35847;SDS011;22332;51.954;20.118;2023-08-06T17:45:58;0.60;;;0.50;;
35847;SDS011;22332;51.954;20.118;2023-08-06T17:49:04;1.20;;;0.60;;
35847;SDS011;22332;51.954;20.118;2023-08-06T17:52:10;0.40;;;0.40;;
35847;SDS011;22332;51.954;20.118;2023-08-06T17:55:15;0.70;;;0.40;;
35847;SDS011;22332;51.954;20.118;2023-08-06T17:58:21;0.50;;;0.40;;
35847;SDS011;22332;51.954;20.118;2023-08-06T18:01:26;1.60;;;0.40;;
35847;SDS011;22332;51.954;20.118;2023-08-06T18:04:32;2.70;;;0.70;;
35847;SDS011;22332;51.954;20.118;2023-08-06T18:07:37;0.50;;;0.40;;
35847;SDS011;22332;51.954;20.118;2023-08-06T18:10:43;0.50;;;0.50;;
35847;SDS011;22332;51.954;20.118;2023-08-06T18:13:48;0.70;;;0.40;;
35847;SDS011;22332;51.954;20.118;2023-08-06T18:16:54;0.70;;;0.60;;